Terminal Aerodrome Forecast
Issued by NWS

Home | Current Version | Previous Version | Text Only | Print | Product List | Glossary Off
Versions: 1 2 3 4 5 6 7 8 9 10 11 12 13 14

000
FTUS43 KGRB 272340
TAFMTW
TAF
KMTW 272340Z 2800/2824 16007KT P6SM BKN120
     FM280500 23003KT P6SM VCSH BKN050 OVC100
     FM280900 25005KT 6SM -RA BR OVC035
     FM281600 20008KT P6SM VCSH BKN035 BKN100=

USA.gov is the U.S. government's official web portal to all federal, state and local government web resources and services.